Spring Garden, Missouri
Current Conditions -  °F | °C
As of 6:55 AM on Wednesday 26 Nov 2014 (Local Time) from KAIZ Reporting Station
Overcast Overcast  
Wind Chill: -1°   Ceiling: 3900
Heat Index:   Visibility: 10mi
Dew Point: -7°   Wind: 6mph
Humidity: 52%   Direction: 180°S
Pressure: 29.99"   Gusts: NA
Location:  38.3538°N, 92.3679°W
Report Text: KAIZ 261255Z AUTO 18005KT 10SM SCT030 BKN039 OVC048 02/M07 A2999 RMK AO1
Loading
Personal Weather Stations






























Interactive Weather Map New forecast layout! Learn more

10-Day Weather Forecast

Advertisements
Track Severe Weather on mobile